sensor_id;sensor_type;location;lat;lon;timestamp;pressure;altitude;pressure_sealevel;temperature;humidity
63090;BME280;49174;43.198;27.824;2023-02-07T05:04:43;103299.06;;;-3.37;74.46
63090;BME280;49174;43.198;27.824;2023-02-07T05:07:08;103297.22;;;-3.35;74.87
63090;BME280;49174;43.198;27.824;2023-02-07T05:09:34;103303.41;;;-3.36;74.81
63090;BME280;49174;43.198;27.824;2023-02-07T05:11:59;103303.41;;;-3.36;74.40
63090;BME280;49174;43.198;27.824;2023-02-07T05:14:25;103307.97;;;-3.43;74.93
63090;BME280;49174;43.198;27.824;2023-02-07T05:16:51;103298.22;;;-3.39;74.72
63090;BME280;49174;43.198;27.824;2023-02-07T05:19:16;103294.84;;;-3.44;75.21
63090;BME280;49174;43.198;27.824;2023-02-07T05:21:42;103300.03;;;-3.41;75.00
63090;BME280;49174;43.198;27.824;2023-02-07T05:24:07;103293.97;;;-3.45;75.03
63090;BME280;49174;43.198;27.824;2023-02-07T05:26:33;103297.56;;;-3.47;75.11
63090;BME280;49174;43.198;27.824;2023-02-07T05:28:58;103300.13;;;-3.44;74.94
63090;BME280;49174;43.198;27.824;2023-02-07T05:31:24;103302.00;;;-3.48;74.97
63090;BME280;49174;43.198;27.824;2023-02-07T05:34:09;103298.53;;;-3.50;74.80
63090;BME280;49174;43.198;27.824;2023-02-07T05:36:34;103295.88;;;-3.50;75.24
63090;BME280;49174;43.198;27.824;2023-02-07T05:39:00;103308.97;;;-3.45;75.16
63090;BME280;49174;43.198;27.824;2023-02-07T05:41:26;103303.59;;;-3.42;74.39
63090;BME280;49174;43.198;27.824;2023-02-07T05:43:51;103301.69;;;-3.37;74.13
63090;BME280;49174;43.198;27.824;2023-02-07T05:46:17;103305.22;;;-3.38;74.50
63090;BME280;49174;43.198;27.824;2023-02-07T05:48:42;103308.59;;;-3.33;74.06
63090;BME280;49174;43.198;27.824;2023-02-07T05:51:08;103311.25;;;-3.33;74.22
63090;BME280;49174;43.198;27.824;2023-02-07T05:53:33;103312.09;;;-3.32;73.65
63090;BME280;49174;43.198;27.824;2023-02-07T05:55:59;103313.88;;;-3.33;74.03
63090;BME280;49174;43.198;27.824;2023-02-07T05:58:24;103317.19;;;-3.26;73.18
63090;BME280;49174;43.198;27.824;2023-02-07T06:00:50;103316.25;;;-3.24;73.60
63090;BME280;49174;43.198;27.824;2023-02-07T06:03:15;103315.28;;;-3.21;72.97
63090;BME280;49174;43.198;27.824;2023-02-07T06:05:41;103315.25;;;-3.20;73.09
63090;BME280;49174;43.198;27.824;2023-02-07T06:08:07;103320.53;;;-3.20;72.68
63090;BME280;49174;43.198;27.824;2023-02-07T06:10:33;103307.13;;;-3.12;72.71
63090;BME280;49174;43.198;27.824;2023-02-07T06:12:58;103321.13;;;-3.10;72.78
63090;BME280;49174;43.198;27.824;2023-02-07T06:15:24;103307.88;;;-3.08;72.50
63090;BME280;49174;43.198;27.824;2023-02-07T06:17:49;103313.06;;;-3.05;72.50
63090;BME280;49174;43.198;27.824;2023-02-07T06:20:15;103310.38;;;-3.04;72.62
63090;BME280;49174;43.198;27.824;2023-02-07T06:22:41;103308.66;;;-3.05;71.40
63090;BME280;49174;43.198;27.824;2023-02-07T06:25:07;103320.81;;;-2.99;71.84
63090;BME280;49174;43.198;27.824;2023-02-07T06:27:38;103316.56;;;-3.03;72.59
63090;BME280;49174;43.198;27.824;2023-02-07T06:30:04;103316.47;;;-3.00;72.32
63090;BME280;49174;43.198;27.824;2023-02-07T06:32:30;103312.88;;;-2.99;71.88
63090;BME280;49174;43.198;27.824;2023-02-07T06:34:55;103318.94;;;-2.96;72.24
63090;BME280;49174;43.198;27.824;2023-02-07T06:37:21;103312.59;;;-2.90;72.00
63090;BME280;49174;43.198;27.824;2023-02-07T06:39:46;103315.09;;;-2.84;71.74
63090;BME280;49174;43.198;27.824;2023-02-07T06:42:12;103322.75;;;-2.76;71.53
63090;BME280;49174;43.198;27.824;2023-02-07T06:44:37;103309.53;;;-2.76;71.42
63090;BME280;49174;43.198;27.824;2023-02-07T06:47:03;103321.00;;;-2.76;70.83
63090;BME280;49174;43.198;27.824;2023-02-07T06:49:29;103306.91;;;-2.76;71.16
63090;BME280;49174;43.198;27.824;2023-02-07T06:54:36;103314.50;;;-2.65;70.66
63090;BME280;49174;43.198;27.824;2023-02-07T06:57:03;103311.94;;;-2.68;70.28
63090;BME280;49174;43.198;27.824;2023-02-07T06:59:28;103322.31;;;-2.62;69.97
63090;BME280;49174;43.198;27.824;2023-02-07T07:04:51;103321.56;;;-2.66;70.03
63090;BME280;49174;43.198;27.824;2023-02-07T07:07:17;103309.13;;;-2.62;69.45
63090;BME280;49174;43.198;27.824;2023-02-07T07:09:42;103321.25;;;-2.57;69.14
63090;BME280;49174;43.198;27.824;2023-02-07T07:12:08;103325.50;;;-2.51;68.33
63090;BME280;49174;43.198;27.824;2023-02-07T07:14:33;103332.56;;;-2.52;68.87
63090;BME280;49174;43.198;27.824;2023-02-07T07:17:00;103326.97;;;-2.42;68.19
63090;BME280;49174;43.198;27.824;2023-02-07T07:19:25;103329.38;;;-2.35;68.37
63090;BME280;49174;43.198;27.824;2023-02-07T07:21:51;103330.22;;;-2.33;68.33
63090;BME280;49174;43.198;27.824;2023-02-07T07:29:41;103324.81;;;-2.30;68.07
63090;BME280;49174;43.198;27.824;2023-02-07T07:32:07;103319.03;;;-2.14;68.73
63090;BME280;49174;43.198;27.824;2023-02-07T07:42:47;103331.81;;;-2.00;67.10
63090;BME280;49174;43.198;27.824;2023-02-07T07:48:19;103330.31;;;-2.09;67.02
63090;BME280;49174;43.198;27.824;2023-02-07T07:53:34;103335.03;;;-1.92;67.21
63090;BME280;49174;43.198;27.824;2023-02-07T09:03:44;103338.34;;;-0.43;57.74
63090;BME280;49174;43.198;27.824;2023-02-07T09:06:11;103337.66;;;-0.48;58.82
63090;BME280;49174;43.198;27.824;2023-02-07T10:15:43;103276.03;;;-0.33;54.55
63090;BME280;49174;43.198;27.824;2023-02-07T13:42:55;103251.38;;;-0.79;65.43
63090;BME280;49174;43.198;27.824;2023-02-07T14:36:24;103258.75;;;-0.87;66.51
63090;BME280;49174;43.198;27.824;2023-02-07T15:11:16;103278.81;;;-0.80;68.15
63090;BME280;49174;43.198;27.824;2023-02-07T15:13:44;103277.03;;;-0.79;68.66
